Terminal Aerodrome Forecast
Issued by NWS Bismarck, ND

Home | Current Version | Previous Version | Text Only | Print | Product List | Glossary Off
Versions: 1 2 3 4 5 6 7 8 9 10 11 12 13 14 15 16 17 18 19 20

074
FTUS43 KBIS 230520
TAFBIS
TAF
KBIS 230520Z 2306/2406 29004KT P6SM VCSH BKN110
      TEMPO 2306/2310 -SHRA BKN060
     FM231100 28004KT P6SM SCT200
     FM240300 VRB04KT P6SM SCT100 BKN150=

USA.gov is the U.S. government's official web portal to all federal, state and local government web resources and services.